ADDS METAR Data INFO
IDs: Format: Raw Decoded Include TAF

Data at: 0059 UTC 21 Oct 2017

KVDF 210055Z AUTO 06004KT 10SM CLR 23/18 A3009 RMK AO2
KVDF 210035Z AUTO 06005KT 10SM CLR 23/18 A3009 RMK AO2
KVDF 210015Z AUTO 06005KT 10SM CLR 23/18 A3008 RMK AO2
KVDF 202355Z AUTO 06004KT 10SM CLR 24/18 A3008 RMK AO2
KVDF 202335Z AUTO 06004KT 10SM CLR 25/18 A3007 RMK AO2
KVDF 202315Z AUTO 00000KT 10SM CLR 25/18 A3007 RMK AO2
KVDF 202255Z AUTO 04003KT 10SM CLR 26/18 A3006 RMK AO2
KVDF 202235Z AUTO 06007KT 10SM CLR 26/18 A3006 RMK AO2
KVDF 202215Z AUTO 06008KT 10SM CLR 27/18 A3006 RMK AO2
KVDF 202155Z AUTO 05005G14KT 10SM CLR 28/18 A3005 RMK AO2
KVDF 202135Z AUTO 06006G14KT 015V085 10SM CLR 29/18 A3005 RMK AO2
KVDF 202115Z AUTO 06011G16KT 10SM CLR 30/18 A3005 RMK AO2
KVDF 202055Z AUTO 08008G17KT 10SM SCT050 SCT055 29/18 A3005 RMK AO2
KVDF 202035Z AUTO 07010G16KT 10SM SCT050 BKN060 28/18 A3006 RMK AO2
KVDF 202015Z AUTO 06007G16KT 10SM SCT050 BKN055 30/19 A3006 RMK AO2
KVDF 201955Z AUTO 08008G15KT 10SM SCT049 BKN055 30/19 A3006 RMK AO2
KVDF 201935Z AUTO 04007G16KT 335V075 10SM SCT047 BKN055 30/19 A3006 RMK AO2
KVDF 201915Z AUTO 06007G16KT 10SM SCT049 BKN055 30/20 A3006 RMK AO2
KVDF 201855Z AUTO 04007G16KT 10SM BKN049 BKN055 29/19 A3006 RMK AO2
KVDF 201835Z AUTO 06011G19KT 10SM BKN049 30/18 A3006 RMK AO2
KVDF 201815Z AUTO 09008G14KT 10SM BKN047 30/20 A3007 RMK AO2
KVDF 201755Z AUTO 07010G17KT 10SM BKN047 31/19 A3008 RMK AO2
KVDF 201735Z AUTO 05007G14KT 10SM SCT045 31/20 A3009 RMK AO2
KVDF 201715Z AUTO 06008KT 10SM SCT043 30/19 A3010 RMK AO2
KVDF 201655Z AUTO 04009G14KT 10SM SCT039 30/20 A3011 RMK AO2
KVDF 201635Z AUTO 06010G17KT 005V065 10SM SCT037 30/20 A3012 RMK AO2
KVDF 201615Z AUTO 07012G16KT 10SM SCT035 29/20 A3012 RMK AO2
KVDF 201555Z AUTO 06014KT 10SM SCT033 29/20 A3012 RMK AO2
KVDF 201535Z AUTO 05009G15KT 10SM BKN029 30/21 A3013 RMK AO2 P0003
KVDF 201435Z AUTO 04008KT 10SM CLR 27/22 A3014 RMK AO2
KVDF 201415Z AUTO 06005KT 10SM CLR 26/22 A3014 RMK AO2
KVDF 201355Z AUTO 05005KT 10SM CLR 25/22 A3014 RMK AO2
KVDF 201335Z AUTO 04004KT 7SM CLR 25/22 A3014 RMK AO2
KVDF 201315Z AUTO 04003KT 10SM CLR 23/22 A3014 RMK AO2
KVDF 201255Z AUTO 04003KT 10SM CLR 22/22 A3014 RMK AO2
KVDF 201235Z AUTO 03004KT 10SM CLR 22/22 A3013 RMK AO2
KVDF 201215Z AUTO 00000KT 10SM CLR 21/21 A3013 RMK AO2
KVDF 201155Z AUTO 00000KT 7SM CLR 21/21 A3012 RMK AO2
KVDF 201135Z AUTO 00000KT 7SM CLR 21/21 A3012 RMK AO2
KVDF 201115Z AUTO 02003KT 7SM CLR 21/21 A3012 RMK AO2
KVDF 201055Z AUTO 00000KT 7SM CLR 21/21 A3012 RMK AO2
KVDF 201035Z AUTO 00000KT 7SM CLR 21/21 A3011 RMK AO2
KVDF 201015Z AUTO 00000KT 7SM SCT004 21/21 A3011 RMK AO2
KVDF 200955Z AUTO 00000KT 10SM CLR 21/21 A3011 RMK AO2
KVDF 200935Z AUTO 00000KT 10SM CLR 21/21 A3011 RMK AO2
KVDF 200915Z AUTO 00000KT 10SM CLR 21/21 A3010 RMK AO2
KVDF 200855Z AUTO 00000KT 10SM CLR 21/21 A3009 RMK AO2
KVDF 200835Z AUTO 00000KT 10SM CLR 21/21 A3010 RMK AO2
KVDF 200815Z AUTO 00000KT 10SM CLR 21/21 A3010 RMK AO2
KVDF 200755Z AUTO 00000KT 10SM CLR 21/21 A3010 RMK AO2
KVDF 200735Z AUTO 00000KT 10SM SCT026 SCT034 21/21 A3010 RMK AO2
KVDF 200715Z AUTO 00000KT 10SM SCT026 BKN034 21/21 A3010 RMK AO2
KVDF 200655Z AUTO 00000KT 10SM CLR 21/21 A3010 RMK AO2
KVDF 200635Z AUTO 00000KT 10SM CLR 21/21 A3011 RMK AO2
KVDF 200615Z AUTO 00000KT 10SM CLR 21/21 A3011 RMK AO2
KVDF 200555Z AUTO 00000KT 10SM CLR 21/21 A3012 RMK AO2
KVDF 200535Z AUTO 03003KT 10SM CLR 22/21 A3011 RMK AO2
KVDF 200515Z AUTO 00000KT 10SM CLR 22/21 A3012 RMK AO2
KVDF 200455Z AUTO 00000KT 10SM CLR 22/21 A3012 RMK AO2
KVDF 200435Z AUTO 02003KT 10SM CLR 22/21 A3012 RMK AO2
KVDF 200415Z AUTO 03003KT 10SM CLR 22/21 A3012 RMK AO2
KVDF 200355Z AUTO 02003KT 10SM CLR 22/21 A3012 RMK AO2
KVDF 200335Z AUTO 00000KT 10SM CLR 22/21 A3012 RMK AO2
KVDF 200315Z AUTO 03003KT 10SM CLR 22/21 A3012 RMK AO2
KVDF 200255Z AUTO 04003KT 10SM CLR 23/21 A3011 RMK AO2
KVDF 200235Z AUTO 04004KT 10SM CLR 23/21 A3011 RMK AO2
KVDF 200215Z AUTO 04003KT 10SM CLR 23/21 A3011 RMK AO2
KVDF 200155Z AUTO 04003KT 10SM CLR 23/21 A3010 RMK AO2
KVDF 200135Z AUTO 04005KT 10SM CLR 23/21 A3009 RMK AO2
KVDF 200115Z AUTO 04005KT 10SM CLR 24/21 A3009 RMK AO2
KVDF 200055Z AUTO 03006KT 10SM CLR 24/21 A3009 RMK AO2
KVDF 200035Z AUTO 03006KT 10SM CLR 24/22 A3009 RMK AO2
KVDF 200015Z AUTO 03004KT 10SM CLR 25/22 A3008 RMK AO2
KVDF 192355Z AUTO 02006KT 10SM CLR 25/22 A3008 RMK AO2
KVDF 192335Z AUTO 01004KT 10SM BKN047 BKN055 25/22 A3007 RMK AO2
KVDF 192315Z AUTO 02004KT 10SM SCT046 OVC050 26/22 A3006 RMK AO2
KVDF 192255Z AUTO 03004KT 10SM BKN048 BKN055 26/22 A3005 RMK AO2
KVDF 192235Z AUTO 05004KT 10SM SCT046 SCT090 27/22 A3004 RMK AO2
KVDF 192215Z AUTO 04004KT 10SM BKN044 OVC049 27/22 A3004 RMK AO2
KVDF 192155Z AUTO 03005KT 10SM BKN044 BKN055 BKN070 27/22 A3004 RMK AO2
KVDF 192135Z AUTO 03005KT 10SM SCT046 SCT050 28/22 A3004 RMK AO2
KVDF 192115Z AUTO 05006KT 10SM SCT044 SCT050 SCT095 30/22 A3004 RMK AO2
KVDF 192055Z AUTO 04005KT 10SM SCT047 SCT055 SCT095 31/23 A3004 RMK AO2
KVDF 192035Z AUTO 04007KT 005V065 10SM SCT038 SCT047 SCT055 31/23 A3004 RMK AO2
KVDF 192015Z AUTO 06008KT 10SM SCT038 SCT046 SCT050 30/23 A3004 RMK AO2
KVDF 191955Z AUTO 03005KT 10SM SCT038 BKN044 BKN055 30/23 A3004 RMK AO2
KVDF 191935Z AUTO 05007KT 10SM SCT038 SCT046 BKN090 29/22 A3004 RMK AO2
KVDF 191915Z AUTO 04005KT 10SM -RA SCT038 SCT045 BKN060 29/23 A3005 RMK AO2
KVDF 191855Z AUTO 04005KT 10SM SCT045 SCT060 SCT070 31/23 A3005 RMK AO2
KVDF 191835Z AUTO 03007KT 10SM SCT040 SCT050 32/23 A3005 RMK AO2
KVDF 191815Z AUTO 05005G15KT 10SM SCT035 31/22 A3006 RMK AO2
KVDF 191755Z AUTO 07005G14KT 10SM SCT033 SCT040 SCT050 31/23 A3007 RMK AO2
KVDF 191735Z AUTO 03004KT 10SM BKN033 BKN039 BKN046 30/23 A3008 RMK AO2
KVDF 191715Z AUTO 05006KT 10SM SCT035 SCT046 SCT055 30/23 A3009 RMK AO2
KVDF 191655Z AUTO 07006G16KT 10SM SCT031 SCT039 30/22 A3010 RMK AO2
KVDF 191635Z AUTO 05006KT 10SM BKN029 31/23 A3011 RMK AO2
KVDF 191615Z AUTO 03006KT 10SM BKN024 BKN031 30/23 A3011 RMK AO2
KVDF 191555Z AUTO 05004KT 10SM BKN024 BKN031 28/23 A3012 RMK AO2
KVDF 191535Z AUTO 03004KT 10SM SCT022 28/23 A3012 RMK AO2
KVDF 191515Z AUTO 03007KT 10SM CLR 28/23 A3012 RMK AO2
KVDF 191455Z AUTO 04006KT 10SM CLR 27/23 A3012 RMK AO2
KVDF 191435Z AUTO 03004KT 10SM SCT013 26/23 A3012 RMK AO2
KVDF 191415Z AUTO 01003KT 10SM SCT013 25/22 A3012 RMK AO2
KVDF 191355Z AUTO 04003KT 10SM SCT007 SCT011 24/22 A3012 RMK AO2
KVDF 191335Z AUTO 03003KT 10SM OVC005 23/22 A3012 RMK AO2
KVDF 191315Z AUTO 01004KT 10SM OVC005 21/21 A3012 RMK AO2